Time;durP1;ratioP1;P1;durP2;ratioP2;P2;SDS_P1;SDS_P2;PMS_P1;PMS_P2;Temp;Humidity;BMP_temperature;BMP_pressure;BME280_temperature;BME280_humidity;BME280_pressure;Samples;Min_cycle;Max_cycle;Signal;HPM_P1;HPM_P2
2023/05/24 00:01:24;;;;;;;12.57;4.03;;;10.30;99.90;;;;;;6208517;23;20029;-69
2023/05/24 00:03:57;;;;;;;20.23;3.88;;;10.20;99.90;;;;;;6208460;23;20393;-70
2023/05/24 00:06:27;;;;;;;18.70;7.22;;;10.30;99.90;;;;;;6211754;23;20052;-70
2023/05/24 00:08:53;;;;;;;20.15;4.45;;;10.20;99.90;;;;;;6210272;23;20020;-70
2023/05/24 00:11:19;;;;;;;15.25;3.38;;;10.20;99.90;;;;;;6212070;23;20020;-70
2023/05/24 00:13:45;;;;;;;8.52;2.90;;;10.20;99.90;;;;;;6209956;23;20017;-70
2023/05/24 00:16:11;;;;;;;19.05;4.38;;;10.20;99.90;;;;;;6212034;23;20313;-70
2023/05/24 00:18:40;;;;;;;15.73;3.90;;;10.20;99.90;;;;;;6211897;23;20016;-70
2023/05/24 00:21:09;;;;;;;18.27;3.60;;;10.10;99.90;;;;;;6210124;23;20021;-70
2023/05/24 00:23:36;;;;;;;22.60;3.85;;;10.00;99.90;;;;;;6185278;23;20027;-70
2023/05/24 00:26:04;;;;;;;13.40;4.03;;;10.00;99.90;;;;;;6211926;23;20036;-69
2023/05/24 00:28:30;;;;;;;13.25;4.85;;;10.00;99.90;;;;;;6210039;23;20100;-69
2023/05/24 00:30:57;;;;;;;16.85;4.65;;;10.00;99.90;;;;;;6210015;23;20088;-70
2023/05/24 00:33:23;;;;;;;18.65;4.35;;;10.10;99.90;;;;;;6211610;23;20108;-70
2023/05/24 00:35:53;;;;;;;16.92;4.15;;;10.10;99.90;;;;;;6210263;23;20055;-70
2023/05/24 00:38:19;;;;;;;13.68;4.20;;;10.00;99.90;;;;;;6210643;23;20017;-70
2023/05/24 00:40:44;;;;;;;10.55;3.22;;;10.10;99.90;;;;;;6212283;23;20095;-70
2023/05/24 00:43:10;;;;;;;11.05;4.55;;;10.00;99.90;;;;;;6212190;23;20024;-70
2023/05/24 00:45:36;;;;;;;12.88;4.82;;;10.00;99.90;;;;;;6209406;23;20013;-70
2023/05/24 00:48:03;;;;;;;14.85;3.78;;;10.00;99.90;;;;;;6209738;23;20023;-70
2023/05/24 00:50:28;;;;;;;15.82;4.65;;;10.10;99.90;;;;;;6210176;23;20329;-69
2023/05/24 00:53:01;;;;;;;19.83;4.05;;;10.10;99.90;;;;;;6210161;23;20087;-70
2023/05/24 00:55:28;;;;;;;21.10;4.90;;;10.10;99.90;;;;;;6209843;23;20017;-70
2023/05/24 00:57:56;;;;;;;18.20;4.65;;;10.10;99.90;;;;;;6209941;23;20009;-70
2023/05/24 01:00:22;;;;;;;11.50;3.97;;;10.10;99.90;;;;;;6211881;23;20088;-70
2023/05/24 01:02:49;;;;;;;9.95;3.53;;;10.20;99.90;;;;;;6211706;23;20028;-70
2023/05/24 01:05:16;;;;;;;14.43;4.15;;;10.20;99.90;;;;;;6210076;23;20041;-70
2023/05/24 01:07:48;;;;;;;18.92;3.78;;;10.20;99.90;;;;;;6210258;23;20017;-70
2023/05/24 01:10:45;;;;;;;24.15;4.35;;;10.10;99.90;;;;;;6210229;23;20032;-70
2023/05/24 01:13:30;;;;;;;16.77;4.07;;;10.10;99.90;;;;;;6209926;23;20100;-70
2023/05/24 01:16:16;;;;;;;18.92;3.50;;;10.10;99.90;;;;;;6209769;23;20042;-69
2023/05/24 01:19:07;;;;;;;16.30;4.30;;;10.10;99.90;;;;;;6210051;23;20020;-70
2023/05/24 01:21:47;;;;;;;13.45;3.83;;;10.10;99.90;;;;;;6209736;23;20071;-70
2023/05/24 01:24:48;;;;;;;13.65;4.38;;;10.10;99.90;;;;;;6209606;23;20024;-70
2023/05/24 01:27:16;;;;;;;16.55;5.38;;;10.10;99.90;;;;;;6205870;23;20729;-70
2023/05/24 01:29:41;;;;;;;17.55;3.75;;;10.10;99.90;;;;;;6211320;23;20016;-70
2023/05/24 01:32:08;;;;;;;14.13;3.90;;;10.00;99.90;;;;;;6184408;23;20067;-70
2023/05/24 01:34:34;;;;;;;15.82;3.90;;;10.10;99.90;;;;;;6209696;23;20024;-70
2023/05/24 01:37:00;;;;;;;17.90;3.72;;;10.10;99.90;;;;;;6211883;23;20099;-70
2023/05/24 01:39:28;;;;;;;20.42;4.30;;;10.10;99.90;;;;;;6209273;23;20020;-70
2023/05/24 01:42:08;;;;;;;12.68;4.00;;;10.10;99.90;;;;;;6209647;23;20456;-70
2023/05/24 01:44:52;;;;;;;12.32;4.82;;;10.10;99.90;;;;;;6211339;23;20355;-70
2023/05/24 01:47:34;;;;;;;17.63;4.65;;;10.10;99.90;;;;;;6209244;23;20436;-70
2023/05/24 01:50:27;;;;;;;19.77;3.83;;;10.00;99.90;;;;;;6209962;23;20016;-70
2023/05/24 01:52:57;;;;;;;17.85;4.28;;;10.00;99.90;;;;;;6211219;23;20047;-70
2023/05/24 01:55:25;;;;;;;21.67;4.65;;;10.00;99.90;;;;;;6211252;23;20335;-70
2023/05/24 01:57:57;;;;;;;15.88;3.83;;;10.00;99.90;;;;;;6211014;23;20013;-70
2023/05/24 02:00:24;;;;;;;14.83;4.07;;;10.00;99.90;;;;;;6209704;23;20016;-70
2023/05/24 02:02:50;;;;;;;19.75;4.53;;;10.00;99.90;;;;;;6209412;23;20020;-70
2023/05/24 02:05:16;;;;;;;11.85;4.03;;;10.00;99.90;;;;;;6210947;23;20074;-69
2023/05/24 02:07:42;;;;;;;20.60;4.25;;;9.90;99.90;;;;;;6209058;23;20017;-70
2023/05/24 02:10:08;;;;;;;16.23;3.72;;;9.90;99.90;;;;;;6210949;23;20819;-70
2023/05/24 02:12:33;;;;;;;18.13;4.82;;;9.90;99.90;;;;;;6208853;23;20029;-70
2023/05/24 02:15:00;;;;;;;29.25;4.20;;;9.80;99.90;;;;;;6209272;23;20052;-70
2023/05/24 02:17:26;;;;;;;17.88;4.15;;;9.90;99.90;;;;;;6211085;23;20019;-70
2023/05/24 02:19:52;;;;;;;14.95;4.43;;;9.90;99.90;;;;;;6211063;23;20044;-70
2023/05/24 02:22:20;;;;;;;14.02;4.28;;;9.80;99.90;;;;;;6208927;23;20017;-70
2023/05/24 02:24:47;;;;;;;16.27;4.20;;;9.80;99.90;;;;;;6210588;23;20012;-70
2023/05/24 02:27:12;;;;;;;12.50;4.70;;;9.80;99.90;;;;;;6209074;23;20071;-70
2023/05/24 02:29:40;;;;;;;12.98;4.20;;;9.80;99.90;;;;;;6208673;23;20024;-70
2023/05/24 02:32:06;;;;;;;15.73;3.97;;;9.80;99.90;;;;;;6210930;23;20020;-70
2023/05/24 02:34:32;;;;;;;24.83;6.40;;;9.90;99.90;;;;;;6210767;23;20102;-70
2023/05/24 02:36:58;;;;;;;17.63;4.20;;;9.80;99.90;;;;;;6208833;23;20388;-70
2023/05/24 02:39:23;;;;;;;15.25;3.72;;;9.80;99.90;;;;;;6208923;23;20031;-70
2023/05/24 02:41:49;;;;;;;17.95;4.35;;;9.80;99.90;;;;;;6210586;23;20489;-70
2023/05/24 02:44:15;;;;;;;10.70;4.13;;;9.80;99.90;;;;;;6210732;23;20078;-70
2023/05/24 02:46:41;;;;;;;23.92;4.93;;;9.80;99.90;;;;;;6209879;23;20020;-70
2023/05/24 02:49:06;;;;;;;21.88;5.25;;;9.80;99.90;;;;;;6208821;23;20016;-70
2023/05/24 02:51:32;;;;;;;18.55;4.80;;;9.80;99.90;;;;;;6208477;23;20017;-70
2023/05/24 02:53:58;;;;;;;12.48;4.50;;;9.80;99.90;;;;;;6210855;23;20122;-70
2023/05/24 02:56:25;;;;;;;15.88;4.43;;;9.80;99.90;;;;;;6210416;23;20021;-70
2023/05/24 02:58:53;;;;;;;26.85;5.93;;;9.80;99.90;;;;;;6208821;23;20059;-70
2023/05/24 03:01:20;;;;;;;15.13;4.32;;;9.90;99.90;;;;;;6208654;23;20577;-70
2023/05/24 03:03:45;;;;;;;16.13;5.40;;;9.90;99.90;;;;;;6210505;23;20013;-70
2023/05/24 03:06:12;;;;;;;16.23;4.25;;;9.90;99.90;;;;;;6208524;23;20021;-70
2023/05/24 03:08:39;;;;;;;12.88;3.88;;;9.90;99.90;;;;;;6208735;23;20016;-70
2023/05/24 03:11:05;;;;;;;21.90;4.53;;;9.90;99.90;;;;;;6183537;23;20074;-69
2023/05/24 03:13:31;;;;;;;20.17;4.82;;;10.00;99.90;;;;;;6208607;23;20025;-70
2023/05/24 03:15:56;;;;;;;14.40;4.03;;;9.90;99.90;;;;;;6210783;23;20027;-70
2023/05/24 03:18:22;;;;;;;17.40;4.78;;;9.90;99.90;;;;;;6210647;23;20009;-70
2023/05/24 03:20:48;;;;;;;15.15;3.90;;;9.90;99.90;;;;;;6208600;23;20031;-70
2023/05/24 03:23:14;;;;;;;18.85;4.60;;;9.90;99.90;;;;;;6208657;23;20118;-70
2023/05/24 03:25:39;;;;;;;11.77;3.55;;;9.80;99.90;;;;;;6208438;23;20048;-70
2023/05/24 03:28:05;;;;;;;17.33;5.88;;;9.90;99.90;;;;;;6208740;23;20345;-70
2023/05/24 03:30:34;;;;;;;13.85;4.05;;;9.90;99.90;;;;;;6210533;23;20092;-70
2023/05/24 03:33:00;;;;;;;19.20;6.40;;;9.80;99.90;;;;;;6208374;23;20353;-70
2023/05/24 03:35:26;;;;;;;21.70;4.03;;;9.90;99.90;;;;;;6208872;23;20017;-70
2023/05/24 03:37:52;;;;;;;17.00;3.88;;;9.90;99.90;;;;;;6185736;23;20100;-70
2023/05/24 03:40:18;;;;;;;12.68;3.58;;;9.90;99.90;;;;;;6211116;23;20012;-70
2023/05/24 03:42:44;;;;;;;17.92;4.10;;;9.90;99.90;;;;;;6212679;23;20028;-70
2023/05/24 03:45:09;;;;;;;13.25;4.43;;;9.90;99.90;;;;;;6212487;23;20035;-70
2023/05/24 03:47:35;;;;;;;11.10;3.78;;;9.90;99.90;;;;;;6209903;23;20012;-70
2023/05/24 03:50:01;;;;;;;18.65;3.88;;;9.90;99.90;;;;;;6210065;23;20734;-70
2023/05/24 03:52:27;;;;;;;14.13;3.75;;;9.90;99.90;;;;;;6210522;23;20095;-70
2023/05/24 03:54:52;;;;;;;14.75;3.85;;;9.90;99.90;;;;;;6212545;23;20075;-70
2023/05/24 03:57:18;;;;;;;15.05;4.40;;;9.90;99.90;;;;;;6212405;23;20068;-70
2023/05/24 03:59:44;;;;;;;19.95;4.28;;;9.90;99.90;;;;;;6210239;23;20055;-69
2023/05/24 04:02:09;;;;;;;14.27;4.30;;;9.90;99.90;;;;;;6210196;23;20344;-70
2023/05/24 04:04:36;;;;;;;19.33;5.10;;;10.00;99.90;;;;;;6210278;23;20016;-70
2023/05/24 04:07:02;;;;;;;16.92;4.07;;;9.90;99.90;;;;;;6210506;23;20013;-70
2023/05/24 04:09:27;;;;;;;14.38;3.85;;;10.00;99.90;;;;;;6212114;23;20017;-70
2023/05/24 04:11:53;;;;;;;18.63;3.75;;;10.00;99.90;;;;;;6211796;23;20020;-70
2023/05/24 04:14:19;;;;;;;22.00;3.92;;;10.00;99.90;;;;;;6211837;23;20048;-70
2023/05/24 04:16:45;;;;;;;17.52;6.15;;;10.00;99.90;;;;;;6212162;23;20027;-70
2023/05/24 04:19:11;;;;;;;19.70;4.18;;;10.00;99.90;;;;;;6211914;23;20092;-70
2023/05/24 04:21:37;;;;;;;14.73;4.38;;;10.00;99.90;;;;;;6210250;23;20048;-70
2023/05/24 04:24:04;;;;;;;16.58;3.20;;;10.00;99.90;;;;;;6211990;23;20094;-70
2023/05/24 04:26:32;;;;;;;10.10;3.50;;;10.00;99.90;;;;;;6210128;23;20024;-70
2023/05/24 04:28:58;;;;;;;12.60;4.05;;;10.00;99.90;;;;;;6210208;23;20096;-70
2023/05/24 04:31:25;;;;;;;18.02;4.35;;;10.00;99.90;;;;;;6210067;23;20024;-70
2023/05/24 04:33:51;;;;;;;19.00;5.63;;;10.10;99.90;;;;;;6211634;23;20015;-70
2023/05/24 04:36:17;;;;;;;18.95;4.97;;;10.10;99.90;;;;;;6210019;23;20032;-70
2023/05/24 04:38:44;;;;;;;15.15;3.88;;;10.20;99.90;;;;;;6210251;23;20017;-70
2023/05/24 04:41:11;;;;;;;12.02;4.00;;;10.20;99.90;;;;;;6209942;23;20512;-69
2023/05/24 04:43:37;;;;;;;16.77;4.55;;;10.20;99.90;;;;;;6209997;23;20015;-69
2023/05/24 04:46:03;;;;;;;17.38;3.80;;;10.30;99.90;;;;;;6209996;23;20020;-70
2023/05/24 04:48:29;;;;;;;12.40;3.50;;;10.30;99.90;;;;;;6209847;23;20096;-70
2023/05/24 04:50:57;;;;;;;14.15;3.80;;;10.20;99.90;;;;;;6209680;23;20064;-69
2023/05/24 04:53:23;;;;;;;14.82;5.00;;;10.20;99.90;;;;;;6209894;23;20112;-70
2023/05/24 04:55:50;;;;;;;20.50;4.30;;;10.20;99.90;;;;;;6211506;23;20498;-70
2023/05/24 04:58:16;;;;;;;12.55;4.03;;;10.20;99.90;;;;;;6209915;23;20008;-70
2023/05/24 05:00:42;;;;;;;12.80;3.33;;;10.30;99.90;;;;;;6211506;23;20016;-69
2023/05/24 05:03:08;;;;;;;13.82;3.92;;;10.30;99.90;;;;;;6211457;23;20440;-70
2023/05/24 05:05:35;;;;;;;17.35;3.90;;;10.30;99.90;;;;;;6211577;23;20024;-70
2023/05/24 05:08:01;;;;;;;13.82;3.22;;;10.30;99.90;;;;;;6210012;23;20013;-70
2023/05/24 05:10:27;;;;;;;22.25;4.63;;;10.30;99.90;;;;;;6211795;23;20011;-70
2023/05/24 05:12:52;;;;;;;18.08;4.30;;;10.40;99.90;;;;;;6209415;23;20411;-70
2023/05/24 05:15:21;;;;;;;18.30;4.72;;;10.40;99.90;;;;;;6210116;23;20730;-70
2023/05/24 05:17:46;;;;;;;12.73;4.00;;;10.40;99.90;;;;;;6211791;23;20392;-70
2023/05/24 05:20:12;;;;;;;12.40;3.80;;;10.50;99.90;;;;;;6184863;23;20016;-70
2023/05/24 05:22:38;;;;;;;13.80;4.38;;;10.40;99.90;;;;;;6210123;23;20345;-70
2023/05/24 05:25:04;;;;;;;21.00;3.72;;;10.50;99.90;;;;;;6211513;23;20088;-70
2023/05/24 05:27:29;;;;;;;16.50;3.83;;;10.50;99.90;;;;;;6184944;23;20502;-70
2023/05/24 05:29:55;;;;;;;15.95;3.83;;;10.60;99.90;;;;;;6209675;23;20016;-70
2023/05/24 05:32:21;;;;;;;22.63;4.80;;;10.70;99.90;;;;;;6211005;23;20496;-70
2023/05/24 05:34:47;;;;;;;14.40;3.55;;;10.70;99.90;;;;;;6211295;23;20012;-70
2023/05/24 05:37:12;;;;;;;16.90;5.68;;;10.70;99.90;;;;;;6211463;23;20042;-70
2023/05/24 05:39:38;;;;;;;18.23;4.88;;;10.80;99.90;;;;;;6209588;23;20071;-70
2023/05/24 05:42:04;;;;;;;19.70;4.28;;;10.90;99.90;;;;;;6209905;23;20028;-70
2023/05/24 05:44:30;;;;;;;15.10;4.32;;;10.90;99.90;;;;;;6209812;23;20027;-70
2023/05/24 05:46:56;;;;;;;16.85;3.75;;;11.00;99.90;;;;;;6209439;23;20008;-70
2023/05/24 05:49:21;;;;;;;19.23;6.35;;;11.10;99.90;;;;;;6210875;23;20012;-71
2023/05/24 05:51:47;;;;;;;13.95;3.97;;;11.10;99.90;;;;;;6209627;23;20048;-70
2023/05/24 05:54:14;;;;;;;18.98;3.72;;;11.20;99.90;;;;;;6211188;23;20092;-70
2023/05/24 05:56:46;;;;;;;14.57;4.00;;;11.20;99.90;;;;;;6209525;23;20047;-70
2023/05/24 05:59:14;;;;;;;11.50;3.83;;;11.40;99.90;;;;;;6184361;23;20017;-70
2023/05/24 06:01:40;;;;;;;17.02;3.85;;;11.70;99.90;;;;;;6209243;23;20021;-70
2023/05/24 06:04:06;;;;;;;14.13;3.53;;;11.70;99.90;;;;;;6209310;23;20092;-70
2023/05/24 06:06:32;;;;;;;13.98;3.50;;;11.70;99.90;;;;;;6210844;23;20442;-70
2023/05/24 06:09:01;;;;;;;12.02;3.70;;;11.80;99.90;;;;;;6211075;23;20024;-70
2023/05/24 06:11:26;;;;;;;12.85;4.93;;;11.80;99.90;;;;;;6209297;23;20099;-70
2023/05/24 06:13:52;;;;;;;15.90;3.70;;;11.80;99.90;;;;;;6210418;23;20060;-70
2023/05/24 06:16:19;;;;;;;11.57;4.30;;;12.00;99.90;;;;;;6209041;23;20114;-70
2023/05/24 06:18:46;;;;;;;13.90;3.65;;;12.10;99.90;;;;;;6208886;23;20089;-70
2023/05/24 06:21:13;;;;;;;18.10;4.90;;;12.20;99.90;;;;;;6209090;23;20012;-69
2023/05/24 06:23:39;;;;;;;15.95;3.80;;;12.20;99.90;;;;;;6209267;23;20348;-70
2023/05/24 06:26:08;;;;;;;16.88;3.55;;;12.30;99.90;;;;;;6208868;23;20020;-69
2023/05/24 06:28:37;;;;;;;17.75;4.13;;;12.30;99.90;;;;;;6211186;23;20028;-69
2023/05/24 06:31:04;;;;;;;14.48;3.00;;;12.40;99.90;;;;;;6209130;23;20024;-69
2023/05/24 06:33:33;;;;;;;13.27;3.33;;;12.40;99.90;;;;;;6211373;23;20373;-69
2023/05/24 06:35:59;;;;;;;14.65;3.42;;;12.40;99.90;;;;;;6211318;23;20017;-69
2023/05/24 06:38:26;;;;;;;9.38;4.43;;;12.40;99.90;;;;;;6209014;23;20027;-70
2023/05/24 06:40:52;;;;;;;13.32;2.80;;;12.40;99.90;;;;;;6184039;23;20017;-70
2023/05/24 06:43:19;;;;;;;19.98;4.88;;;12.50;99.90;;;;;;6208670;23;20016;-70
2023/05/24 06:45:45;;;;;;;9.48;3.15;;;12.50;99.90;;;;;;6209050;23;20095;-70
2023/05/24 06:48:11;;;;;;;11.93;3.80;;;12.50;99.90;;;;;;6207841;23;20479;-70
2023/05/24 06:50:37;;;;;;;15.40;4.55;;;12.60;99.90;;;;;;6208334;23;20055;-70
2023/05/24 06:53:02;;;;;;;20.60;3.75;;;12.60;99.90;;;;;;6208446;23;20025;-70
2023/05/24 06:55:28;;;;;;;12.43;3.00;;;12.60;99.90;;;;;;6209824;23;20256;-69
2023/05/24 06:57:54;;;;;;;10.50;3.22;;;12.60;99.90;;;;;;6209835;23;20028;-70
2023/05/24 07:00:21;;;;;;;13.77;3.25;;;12.70;99.90;;;;;;6208332;23;20020;-71
2023/05/24 07:02:46;;;;;;;9.77;3.60;;;12.60;99.90;;;;;;6208286;23;20059;-71
2023/05/24 07:05:12;;;;;;;16.33;4.15;;;12.70;99.90;;;;;;6183078;23;20024;-71
2023/05/24 07:07:39;;;;;;;12.65;3.58;;;12.80;99.90;;;;;;6208327;23;20182;-72
2023/05/24 07:10:09;;;;;;;13.65;4.40;;;12.80;99.90;;;;;;6208427;23;20024;-70
2023/05/24 07:12:36;;;;;;;14.68;4.15;;;12.80;99.90;;;;;;6183038;23;20020;-71
2023/05/24 07:15:03;;;;;;;12.45;4.78;;;12.80;99.90;;;;;;6208529;23;20048;-71
2023/05/24 07:17:29;;;;;;;12.20;3.63;;;12.80;99.90;;;;;;6208217;23;20016;-71
2023/05/24 07:19:55;;;;;;;21.75;5.65;;;12.70;99.90;;;;;;6208717;23;20023;-71
2023/05/24 07:22:23;;;;;;;15.20;3.30;;;12.80;99.90;;;;;;6183673;23;20071;-71
2023/05/24 07:24:49;;;;;;;12.88;3.42;;;12.90;99.90;;;;;;6208406;23;20024;-71
2023/05/24 07:27:14;;;;;;;11.85;3.13;;;13.10;99.90;;;;;;6183218;23;20020;-74
2023/05/24 07:29:40;;;;;;;11.77;3.70;;;13.00;99.90;;;;;;6210251;23;20020;-70
2023/05/24 07:32:06;;;;;;;8.13;2.75;;;13.30;99.90;;;;;;6208159;23;20448;-71
2023/05/24 07:34:33;;;;;;;11.55;2.92;;;13.50;99.90;;;;;;6208722;23;20024;-68
2023/05/24 07:37:00;;;;;;;15.35;3.25;;;13.60;99.90;;;;;;6208825;23;20020;-68
2023/05/24 07:39:26;;;;;;;11.38;2.83;;;13.70;99.90;;;;;;6210119;23;20071;-69
2023/05/24 07:41:53;;;;;;;13.60;2.80;;;13.70;99.90;;;;;;6208361;23;20019;-68
2023/05/24 07:44:19;;;;;;;10.35;2.70;;;13.50;99.90;;;;;;6208572;23;20119;-68
2023/05/24 07:46:45;;;;;;;7.25;2.90;;;13.60;99.90;;;;;;6208477;23;20353;-68
2023/05/24 07:49:11;;;;;;;11.70;2.80;;;13.40;99.90;;;;;;6210226;23;20038;-68
2023/05/24 07:51:37;;;;;;;10.20;2.63;;;13.50;99.90;;;;;;6210590;23;20086;-68
2023/05/24 07:54:04;;;;;;;6.95;2.75;;;13.70;99.90;;;;;;6208247;23;20027;-68
2023/05/24 07:56:30;;;;;;;8.98;3.20;;;13.70;99.90;;;;;;6210270;23;20012;-68
2023/05/24 07:59:02;;;;;;;11.70;3.47;;;13.70;99.90;;;;;;6208532;23;20024;-67
2023/05/24 08:01:29;;;;;;;9.30;2.85;;;13.70;99.90;;;;;;6210417;23;20031;-68
2023/05/24 08:03:56;;;;;;;11.57;2.72;;;13.70;99.90;;;;;;6210026;23;20020;-68
2023/05/24 08:06:22;;;;;;;14.23;3.60;;;13.70;99.90;;;;;;6208920;23;20325;-67
2023/05/24 08:08:49;;;;;;;7.43;2.78;;;13.80;99.90;;;;;;6210750;23;20028;-68
2023/05/24 08:11:15;;;;;;;8.25;2.38;;;13.90;99.90;;;;;;6208249;23;20020;-68
2023/05/24 08:13:40;;;;;;;13.48;2.90;;;13.90;99.90;;;;;;6209902;23;20449;-68
2023/05/24 08:16:06;;;;;;;8.35;3.78;;;14.00;99.90;;;;;;6208730;23;20092;-68
2023/05/24 08:18:32;;;;;;;11.48;2.15;;;14.00;99.90;;;;;;6208323;23;20017;-68
2023/05/24 08:20:58;;;;;;;5.82;1.98;;;14.10;99.90;;;;;;6210245;23;20013;-68
2023/05/24 08:23:23;;;;;;;9.88;2.70;;;14.00;99.90;;;;;;6208928;23;20036;-68
2023/05/24 08:25:49;;;;;;;9.45;2.83;;;14.00;99.90;;;;;;6208834;23;20060;-68
2023/05/24 08:28:15;;;;;;;10.18;2.88;;;13.90;99.90;;;;;;6210306;23;20024;-68
2023/05/24 08:30:42;;;;;;;10.57;3.20;;;13.90;99.90;;;;;;6211991;23;20342;-68
2023/05/24 08:33:08;;;;;;;9.32;2.58;;;14.00;99.90;;;;;;6212308;23;20016;-68
2023/05/24 08:35:34;;;;;;;12.23;3.03;;;14.10;99.90;;;;;;6211673;23;20012;-68
2023/05/24 08:38:00;;;;;;;11.85;3.35;;;14.00;99.90;;;;;;6210032;23;20352;-68
2023/05/24 08:40:26;;;;;;;8.05;2.58;;;14.30;99.90;;;;;;6211457;23;20420;-68
2023/05/24 08:42:53;;;;;;;7.57;2.53;;;14.40;99.90;;;;;;6211700;23;20062;-68
2023/05/24 08:45:21;;;;;;;13.15;2.53;;;14.10;99.90;;;;;;6210160;23;20021;-69
2023/05/24 08:47:49;;;;;;;11.35;2.88;;;14.20;99.90;;;;;;6210183;23;20466;-69
2023/05/24 08:50:15;;;;;;;10.68;2.72;;;14.20;99.90;;;;;;6209843;23;20017;-69
2023/05/24 08:52:44;;;;;;;9.15;2.17;;;13.90;99.90;;;;;;6211416;23;20063;-69
2023/05/24 08:55:10;;;;;;;12.32;2.80;;;13.90;99.90;;;;;;6211266;23;20364;-69
2023/05/24 08:57:38;;;;;;;8.30;3.22;;;13.80;99.90;;;;;;6211863;23;20008;-69
2023/05/24 09:00:10;;;;;;;13.10;3.25;;;13.90;99.90;;;;;;6211911;23;20016;-69
2023/05/24 09:02:40;;;;;;;11.38;3.00;;;14.30;99.90;;;;;;6211606;23;20020;-69
2023/05/24 09:05:13;;;;;;;12.93;2.80;;;14.10;99.90;;;;;;6211899;23;20071;-69
2023/05/24 09:07:39;;;;;;;;;;;14.40;99.90;;;;;;6212386;23;20349;-68
2023/05/24 09:10:07;;;;;;;9.15;2.28;;;14.10;99.90;;;;;;6208167;23;20014;-68
2023/05/24 09:12:35;;;;;;;11.55;2.78;;;14.00;99.90;;;;;;6211311;23;20090;-68
2023/05/24 09:15:01;;;;;;;11.65;3.22;;;14.00;99.90;;;;;;6211882;23;20028;-67
2023/05/24 09:17:29;;;;;;;8.75;2.28;;;14.00;99.90;;;;;;6211394;23;20473;-68
2023/05/24 09:19:57;;;;;;;15.10;3.15;;;14.10;99.90;;;;;;6209799;23;20078;-68
2023/05/24 09:22:24;;;;;;;13.93;3.22;;;14.10;99.90;;;;;;6209961;23;20375;-68
2023/05/24 09:24:51;;;;;;;10.60;3.00;;;14.10;99.90;;;;;;6209426;23;20016;-68
2023/05/24 09:27:20;;;;;;;10.30;2.50;;;14.20;99.90;;;;;;6211624;23;20013;-68
2023/05/24 09:29:47;;;;;;;7.75;3.08;;;14.30;99.90;;;;;;6211637;23;20027;-68
2023/05/24 09:32:14;;;;;;;8.07;3.13;;;14.30;99.90;;;;;;6211502;23;21009;-68
2023/05/24 09:34:47;;;;;;;10.07;2.42;;;14.40;99.90;;;;;;6211311;23;20048;-68
2023/05/24 09:37:18;;;;;;;13.15;3.05;;;14.40;99.90;;;;;;6208807;23;20016;-68
2023/05/24 09:39:49;;;;;;;11.38;3.30;;;14.50;99.90;;;;;;6209825;23;20453;-70
2023/05/24 09:42:22;;;;;;;9.85;2.08;;;14.50;99.90;;;;;;6211794;23;20016;-69
2023/05/24 09:44:59;;;;;;;11.90;2.72;;;14.30;99.90;;;;;;6211650;23;20027;-69
2023/05/24 09:47:32;;;;;;;9.27;2.90;;;14.40;99.90;;;;;;6211733;23;20062;-69
2023/05/24 09:49:58;;;;;;;11.43;3.00;;;14.40;99.90;;;;;;6211776;23;20015;-69
2023/05/24 09:52:24;;;;;;;11.20;2.88;;;14.20;99.90;;;;;;6209223;23;20025;-67
2023/05/24 09:54:50;;;;;;;9.70;2.67;;;14.30;99.90;;;;;;6211243;23;20020;-68
2023/05/24 09:57:17;;;;;;;11.90;3.33;;;14.30;99.90;;;;;;6211666;23;20012;-68
2023/05/24 09:59:43;;;;;;;12.13;2.90;;;14.30;99.90;;;;;;6209208;23;20019;-68
2023/05/24 10:02:10;;;;;;;13.32;2.70;;;14.30;99.90;;;;;;6211069;23;20673;-68
2023/05/24 10:04:38;;;;;;;8.00;2.00;;;14.60;99.90;;;;;;6209436;23;20020;-68
2023/05/24 10:07:05;;;;;;;13.85;3.33;;;14.80;99.90;;;;;;6211307;23;20035;-68
2023/05/24 10:09:34;;;;;;;6.65;1.92;;;15.20;99.90;;;;;;6211428;23;20008;-68
2023/05/24 10:12:07;;;;;;;6.30;2.15;;;15.20;99.90;;;;;;6209344;23;20020;-68
2023/05/24 10:14:37;;;;;;;5.05;1.92;;;15.00;99.90;;;;;;6209721;23;20024;-68
2023/05/24 10:17:04;;;;;;;7.40;2.10;;;15.00;99.90;;;;;;6209657;23;20505;-68
2023/05/24 10:19:31;;;;;;;7.68;2.47;;;15.00;99.90;;;;;;6209708;23;20267;-68
2023/05/24 10:21:58;;;;;;;9.60;2.78;;;15.00;99.90;;;;;;6209705;23;20091;-68
2023/05/24 10:24:28;;;;;;;3.63;2.00;;;15.00;99.90;;;;;;6211474;23;20092;-68
2023/05/24 10:26:56;;;;;;;6.78;2.30;;;15.20;99.90;;;;;;6211547;23;20082;-68
2023/05/24 10:29:50;;;;;;;9.55;2.65;;;15.40;99.90;;;;;;6209448;23;20013;-68
2023/05/24 10:32:17;;;;;;;8.48;2.40;;;15.30;99.90;;;;;;6209681;23;20020;-68
2023/05/24 10:34:45;;;;;;;5.32;2.08;;;15.20;99.90;;;;;;6211651;23;20913;-69
2023/05/24 10:37:11;;;;;;;7.55;2.22;;;15.10;99.90;;;;;;6184321;23;20013;-68
2023/05/24 10:39:37;;;;;;;4.28;1.73;;;15.10;99.90;;;;;;6208899;23;20570;-68
2023/05/24 10:42:06;;;;;;;10.15;2.20;;;15.20;99.90;;;;;;6210869;23;20023;-68
2023/05/24 10:44:32;;;;;;;4.75;2.25;;;15.10;99.90;;;;;;6211505;23;20020;-68
2023/05/24 10:47:08;;;;;;;5.63;2.25;;;15.20;99.90;;;;;;6211539;23;20087;-68
2023/05/24 10:49:35;;;;;;;9.55;2.03;;;15.10;99.90;;;;;;6211226;23;20023;-68
2023/05/24 10:52:09;;;;;;;11.07;2.58;;;15.00;99.90;;;;;;6210727;23;20449;-68
2023/05/24 10:54:35;;;;;;;10.07;2.05;;;15.00;99.90;;;;;;6210120;23;20020;-68
2023/05/24 10:57:03;;;;;;;5.97;1.90;;;15.10;99.90;;;;;;6211614;23;20313;-68
2023/05/24 10:59:37;;;;;;;5.43;2.28;;;15.10;99.90;;;;;;6209781;23;20084;-68
2023/05/24 11:19:20;;;;;;;7.82;2.35;;;15.10;99.90;;;;;;6241009;23;20020;-68
2023/05/24 11:21:48;;;;;;;8.23;2.58;;;15.00;99.90;;;;;;6241420;22;20016;-69
2023/05/24 11:24:16;;;;;;;9.65;2.22;;;15.10;99.90;;;;;;6240853;22;20024;-68
2023/05/24 11:26:43;;;;;;;6.32;2.80;;;15.10;99.90;;;;;;6239476;23;20051;-68
2023/05/24 11:29:12;;;;;;;9.30;2.67;;;15.00;99.90;;;;;;6239510;23;20020;-68
2023/05/24 11:31:38;;;;;;;5.90;2.40;;;15.30;99.90;;;;;;6240800;22;20014;-68
2023/05/24 11:34:09;;;;;;;9.80;2.10;;;15.10;99.90;;;;;;6213656;23;20452;-68
2023/05/24 11:36:35;;;;;;;6.68;1.80;;;15.10;99.90;;;;;;6239372;23;20051;-68
2023/05/24 11:39:06;;;;;;;7.18;1.90;;;15.10;99.90;;;;;;6239767;23;20012;-68
2023/05/24 11:41:35;;;;;;;6.00;1.90;;;15.10;99.90;;;;;;6240931;22;20016;-68
2023/05/24 11:44:01;;;;;;;7.25;2.33;;;15.10;99.90;;;;;;6241422;22;20013;-68
2023/05/24 11:46:27;;;;;;;12.13;2.72;;;15.10;99.90;;;;;;6241445;22;20008;-68
2023/05/24 11:48:56;;;;;;;5.53;1.77;;;15.30;99.90;;;;;;6240999;22;20553;-68
2023/05/24 11:51:27;;;;;;;7.13;1.95;;;15.30;99.90;;;;;;6237835;22;20012;-68
2023/05/24 11:53:52;;;;;;;5.10;1.98;;;15.30;99.90;;;;;;6240183;22;20024;-68
2023/05/24 11:56:20;;;;;;;5.60;1.90;;;15.40;99.90;;;;;;6213710;23;20016;-68
2023/05/24 11:58:49;;;;;;;3.95;1.70;;;15.40;99.90;;;;;;6240262;22;20031;-68
2023/05/24 12:01:27;;;;;;;3.28;1.77;;;15.70;99.90;;;;;;6241878;22;20361;-68
2023/05/24 12:03:54;;;;;;;5.57;1.90;;;15.60;99.90;;;;;;6240359;23;20363;-68
2023/05/24 12:06:20;;;;;;;6.82;2.10;;;15.70;99.90;;;;;;6243018;22;20023;-68
2023/05/24 12:08:47;;;;;;;5.78;2.10;;;15.70;99.90;;;;;;6242919;22;20016;-68
2023/05/24 12:11:13;;;;;;;9.75;2.10;;;16.00;99.90;;;;;;6241995;22;20008;-68
2023/05/24 12:13:39;;;;;;;8.32;2.13;;;16.20;99.90;;;;;;6242291;22;20016;-70
2023/05/24 12:16:06;;;;;;;5.88;2.25;;;15.90;99.90;;;;;;6240765;22;20012;-70
2023/05/24 12:18:32;;;;;;;8.95;3.20;;;16.10;99.90;;;;;;6242237;22;20032;-70
2023/05/24 12:20:58;;;;;;;9.05;2.67;;;15.80;99.90;;;;;;6240822;23;20020;-70
2023/05/24 12:23:31;;;;;;;6.40;2.30;;;15.70;99.90;;;;;;6240506;23;20020;-70
2023/05/24 12:25:59;;;;;;;7.93;2.25;;;15.40;99.90;;;;;;6241970;22;20023;-69
2023/05/24 12:28:26;;;;;;;11.45;2.80;;;15.30;99.90;;;;;;6240819;23;20023;-70
2023/05/24 12:30:52;;;;;;;10.48;1.98;;;15.30;99.90;;;;;;6240574;23;20052;-70
2023/05/24 12:33:18;;;;;;;10.30;2.47;;;15.10;99.90;;;;;;6240321;23;20016;-70
2023/05/24 12:35:46;;;;;;;5.93;2.13;;;15.20;99.90;;;;;;6242521;22;20028;-70
2023/05/24 12:38:12;;;;;;;6.95;2.90;;;15.10;99.90;;;;;;6240686;23;20016;-70
2023/05/24 12:40:42;;;;;;;8.18;2.38;;;15.10;99.90;;;;;;6242308;22;20019;-70
2023/05/24 12:43:09;;;;;;;11.05;2.67;;;15.10;99.90;;;;;;6242959;22;20008;-70
2023/05/24 12:45:36;;;;;;;9.35;2.28;;;15.10;99.90;;;;;;6242596;22;20054;-69
2023/05/24 12:48:03;;;;;;;8.35;2.30;;;15.20;99.90;;;;;;6240275;23;20016;-70
2023/05/24 12:50:30;;;;;;;9.38;2.17;;;15.30;99.90;;;;;;6242092;22;20023;-70
2023/05/24 12:52:56;;;;;;;7.63;2.22;;;15.40;99.90;;;;;;6242166;22;20012;-69
2023/05/24 12:55:27;;;;;;;10.02;2.80;;;15.60;99.90;;;;;;6240753;23;20027;-68
2023/05/24 12:57:54;;;;;;;9.73;2.40;;;15.70;99.90;;;;;;6243283;22;20018;-68
2023/05/24 13:00:27;;;;;;;7.75;2.35;;;15.80;99.90;;;;;;6240743;23;20016;-68